Ottoman Nobility — TCDA2 — position and weather

sailwx.info

Track history (hours):
 
Tides and Currents Weather Stations Pressure Air Temp Water Temp Dewpoint Dewpoint Depression Visibility Wind Speed Wind Dir Waves Ship Positions

Ottoman Nobility

Last reported at 2017-Mar-25 16:34 UTC. Time now 2017-Mar-25 17:29 UTC.
Position N 50°07' W 001°16'.

; draft 15 m.

Type: Ship. MMSI: 271000773.

Date/timePositionNaut miles runAvg speedWind from/ knotsBaromVisibWave heightAir tempDewpointWater temp
2017-Mar-25 16:34N 50°07' W 001°16'1313.0
2017-Mar-25 15:33N 50°03' W 001°35'1212.0
2017-Mar-25 14:33N 50°00' W 001°53'1110.8
2017-Mar-25 13:34N 49°57' W 002°09'1210.2
2017-Mar-25 12:25N 49°54' W 002°27'10 9.8
2017-Mar-25 11:26N 49°52' W 002°41'2010.5
2017-Mar-25 09:31N 49°44' W 003°10'1111.3
2017-Mar-25 08:33N 49°38' W 003°24'4111.9
2017-Mar-25 05:09N 49°17' W 004°18'812.4
2017-Mar-25 04:32N 49°13' W 004°28'3913.0
2017-Mar-25 01:30N 48°54' W 005°20'1313.2
2017-Mar-25 00:33N 48°47' W 005°36'  
2017-Mar-20 04:28N 28°07' W 015°21'  
2017-Mar-17 08:12N 14°12' W 017°46'2012.4
2017-Mar-17 06:34N 13°52' W 017°46'1612.5
2017-Mar-17 05:18N 13°36' W 017°46'17611.9
2017-Mar-16 14:32N 10°51' W 016°45'1812.6
2017-Mar-16 13:07N 10°38' W 016°32'813.2
2017-Mar-16 12:28N 10°32' W 016°26'1212.9
2017-Mar-16 11:33N 10°23' W 016°18'1612.5
2017-Mar-16 10:19N 10°13' W 016°06'912.2
2017-Mar-16 09:33N 10°05' W 016°00'1212.3
2017-Mar-16 08:33N 09°57' W 015°51'1312.7
2017-Mar-16 07:33N 09°48' W 015°42'1712.9
2017-Mar-16 06:17N 09°36' W 015°31'1012.7
2017-Mar-16 05:27N 09°28' W 015°23'1112.6
2017-Mar-16 04:33N 09°20' W 015°15'1212.5
2017-Mar-16 03:33N 09°11' W 015°07'1312.6
2017-Mar-16 02:33N 09°01' W 014°59'1312.5
2017-Mar-16 01:30N 08°51' W 014°51'1212.4
2017-Mar-16 00:33N 08°41' W 014°44'1212.4
2017-Mar-15 23:33N 08°31' W 014°37'1212.4
2017-Mar-15 22:33N 08°21' W 014°29'1412.3
2017-Mar-15 21:24N 08°10' W 014°20'1012.3
2017-Mar-15 20:33N 08°02' W 014°14'4112.3
2017-Mar-15 17:12N 07°37' W 013°41'  
Track history (hours):
 
Tides and Currents Weather Stations Pressure Air Temp Water Temp Dewpoint Dewpoint Depression Visibility Wind Speed Wind Dir Waves Ship Positions

Ottoman Nobility

Last reported at 2017-Mar-25 16:34 UTC. Time now 2017-Mar-25 17:29 UTC.
Position N 50°07' W 001°16'.

; draft 15 m.

Type: Ship. MMSI: 271000773.

Date/timePositionNaut miles runAvg speedWind from/ knotsBaromVisibWave heightAir tempDewpointWater temp
2017-Mar-25 16:34N 50°07' W 001°16'1313.0
2017-Mar-25 15:33N 50°03' W 001°35'1212.0
2017-Mar-25 14:33N 50°00' W 001°53'1110.8
2017-Mar-25 13:34N 49°57' W 002°09'1210.2
2017-Mar-25 12:25N 49°54' W 002°27'10 9.8
2017-Mar-25 11:26N 49°52' W 002°41'2010.5
2017-Mar-25 09:31N 49°44' W 003°10'1111.3
2017-Mar-25 08:33N 49°38' W 003°24'4111.9
2017-Mar-25 05:09N 49°17' W 004°18'812.4
2017-Mar-25 04:32N 49°13' W 004°28'3913.0
2017-Mar-25 01:30N 48°54' W 005°20'1313.2
2017-Mar-25 00:33N 48°47' W 005°36'  
2017-Mar-20 04:28N 28°07' W 015°21'  
2017-Mar-17 08:12N 14°12' W 017°46'2012.4
2017-Mar-17 06:34N 13°52' W 017°46'1612.5
2017-Mar-17 05:18N 13°36' W 017°46'17611.9
2017-Mar-16 14:32N 10°51' W 016°45'1812.6
2017-Mar-16 13:07N 10°38' W 016°32'813.2
2017-Mar-16 12:28N 10°32' W 016°26'1212.9
2017-Mar-16 11:33N 10°23' W 016°18'1612.5
2017-Mar-16 10:19N 10°13' W 016°06'912.2
2017-Mar-16 09:33N 10°05' W 016°00'1212.3
2017-Mar-16 08:33N 09°57' W 015°51'1312.7
2017-Mar-16 07:33N 09°48' W 015°42'1712.9
2017-Mar-16 06:17N 09°36' W 015°31'1012.7
2017-Mar-16 05:27N 09°28' W 015°23'1112.6
2017-Mar-16 04:33N 09°20' W 015°15'1212.5
2017-Mar-16 03:33N 09°11' W 015°07'1312.6
2017-Mar-16 02:33N 09°01' W 014°59'1312.5
2017-Mar-16 01:30N 08°51' W 014°51'1212.4
2017-Mar-16 00:33N 08°41' W 014°44'1212.4
2017-Mar-15 23:33N 08°31' W 014°37'1212.4
2017-Mar-15 22:33N 08°21' W 014°29'1412.3
2017-Mar-15 21:24N 08°10' W 014°20'1012.3
2017-Mar-15 20:33N 08°02' W 014°14'4112.3
2017-Mar-15 17:12N 07°37' W 013°41'  

Dump ship's entire track history